Česky Dansk Deutsch English Español Suomi Français Magyar Italiano Nederlands norsk Polski Português svenska Türkçe

 

Het Weer

Holzdorf (Duitsland)

19:20, 21 augustus 2016 (GMT)

NWNNE
WE
SWSSE
Home            
Holzdorf Berlin-Schoenefeld Leipzig-Schkeuditz Cottbus Flugplatz Berlin-Tempelhof Dresden-Klotzsche Berlin-Tegel Preschen Altenburg Nobitz Magdeburg, Sachsen-Anhalt Zielona Gora Wittstock Liberec Karlovy Vary Erfurt-Bindersleben Hof Braunschweig Praha / Ruzyne Trollenhagen Szczecin Mecklenburg-Vorpommern, Parchim Bayreuth Celle

Om een weerknop op uw website of weblog te plaatsen, copieer onderstaande code en plak die in uw pagina. In het eerste vakje staat HTML-code, in het tweede vakje UBB-code.


Add to Google

Details

Wind speed:2 bf, 5 kn, 2.6 m/s, 5.8 miles/h, 9.3 km/h
Wind direction:WSW, 250°
Visibility:Greater than 10000 m, 10 km, 32800 ft, 6.2 miles
Clouds:Ein wenig bewölkt at 7000 ft, 2134 m
Temperature:18°C, 64°F
Dew-point:9°C, 48°F
Atmospheric pressure:1019 hPa, 764.3 mmHg, 30.09 inHg, 1.006 atm
Relative humidity:55.6 %
METAR:ETSH 211920Z 25005KT 9999 FEW070 18/09 Q1019 BLU+

Snelkoppelingen

Actuele weersinformatie van de hele wereld. Voeg locaties toe met het plus (+) symbool. Deze snelkoppelingen kunnen worden toegevoegd aan Google.

Lid van de Technetium groep

website free tracking
StatCounter NetStat W3C Validator

20-01-2021 02:05:52
astro.technetium.be money.technetium.be phote.technetium.be tafeltennistafel.technetium.be www.ligfiets.net